Time;durP1;ratioP1;P1;durP2;ratioP2;P2;SDS_P1;SDS_P2;PMS_P1;PMS_P2;Temp;Humidity;BMP_temperature;BMP_pressure;BME280_temperature;BME280_humidity;BME280_pressure;Samples;Min_cycle;Max_cycle;Signal;HPM_P1;HPM_P2
2022/06/13 00:00:17;;;;;;;6.00;5.50;;;18.30;99.90;;;;;;4992588;28;20516;-68
2022/06/13 00:02:42;;;;;;;7.10;6.50;;;18.30;99.90;;;;;;4993855;28;20242;-68
2022/06/13 00:05:09;;;;;;;7.70;5.53;;;18.30;99.90;;;;;;4990711;28;20924;-69
2022/06/13 00:07:35;;;;;;;5.40;5.00;;;18.30;99.90;;;;;;4988084;28;20175;-69
2022/06/13 00:10:01;;;;;;;5.37;4.90;;;18.20;99.90;;;;;;4991368;28;20481;-69
2022/06/13 00:12:28;;;;;;;5.00;4.70;;;18.20;99.90;;;;;;4990201;28;20294;-69
2022/06/13 00:14:53;;;;;;;7.83;5.47;;;18.20;99.90;;;;;;4991697;28;20494;-69
2022/06/13 00:17:19;;;;;;;6.40;5.80;;;18.20;99.90;;;;;;4991370;28;20442;-69
2022/06/13 00:19:45;;;;;;;7.30;5.57;;;18.10;99.90;;;;;;4989464;28;20645;-69
2022/06/13 00:22:10;;;;;;;6.83;5.60;;;18.00;99.90;;;;;;4991260;28;20198;-69
2022/06/13 00:24:36;;;;;;;6.60;6.00;;;17.90;99.90;;;;;;4991054;28;20183;-69
2022/06/13 00:27:02;;;;;;;12.67;6.33;;;17.90;99.90;;;;;;4991044;28;20236;-69
2022/06/13 00:29:28;;;;;;;5.50;5.10;;;17.90;99.90;;;;;;4991191;28;20439;-69
2022/06/13 00:31:54;;;;;;;5.67;5.27;;;17.90;99.90;;;;;;4990608;28;20454;-69
2022/06/13 00:34:20;;;;;;;5.43;4.90;;;18.00;99.90;;;;;;4989635;28;20183;-69
2022/06/13 00:36:45;;;;;;;5.80;5.20;;;17.90;99.90;;;;;;4991903;28;20827;-69
2022/06/13 00:39:11;;;;;;;5.70;5.27;;;17.90;99.90;;;;;;4991583;28;20442;-70
2022/06/13 00:41:39;;;;;;;6.60;5.43;;;17.90;99.90;;;;;;4991061;28;20207;-69
2022/06/13 00:44:24;;;;;;;6.00;5.50;;;18.00;99.90;;;;;;4990118;28;20258;-69
2022/06/13 00:46:50;;;;;;;6.33;5.60;;;18.00;99.90;;;;;;4990886;28;20443;-69
2022/06/13 00:49:40;;;;;;;5.20;4.80;;;17.90;99.90;;;;;;4989806;28;20442;-69
2022/06/13 00:52:18;;;;;;;6.53;5.93;;;18.00;99.90;;;;;;4990606;28;20510;-69
2022/06/13 00:54:46;;;;;;;5.60;5.10;;;18.00;99.90;;;;;;4989448;28;20445;-69
2022/06/13 00:57:27;;;;;;;5.30;4.90;;;18.10;99.90;;;;;;4986499;28;20439;-69
2022/06/13 00:59:57;;;;;;;5.80;5.30;;;18.10;99.90;;;;;;4986800;28;20439;-72
2022/06/13 01:02:23;;;;;;;5.90;5.50;;;18.00;99.90;;;;;;4986953;28;20506;-69
2022/06/13 01:04:52;;;;;;;7.10;6.53;;;18.10;99.90;;;;;;4986496;28;20983;-70
2022/06/13 01:07:20;;;;;;;5.37;4.87;;;18.00;99.90;;;;;;4991476;28;20569;-70
2022/06/13 01:12:32;;;;;;;8.50;5.67;;;18.10;99.90;;;;;;4987530;28;20880;-69
2022/06/13 01:15:15;;;;;;;5.53;5.00;;;18.20;99.90;;;;;;4990996;28;20448;-69
2022/06/13 01:18:08;;;;;;;5.50;5.00;;;18.20;99.90;;;;;;4988179;28;20434;-70
2022/06/13 01:21:02;;;;;;;4.93;4.53;;;18.20;99.90;;;;;;4988223;28;20482;-70
2022/06/13 01:23:52;;;;;;;5.80;5.40;;;18.20;99.90;;;;;;4989692;28;20465;-70
2022/06/13 01:26:39;;;;;;;6.57;5.87;;;18.10;99.90;;;;;;4988843;28;20434;-69
2022/06/13 01:29:27;;;;;;;5.53;5.13;;;18.10;99.90;;;;;;4986098;28;20521;-69
2022/06/13 01:32:16;;;;;;;5.37;4.87;;;18.10;99.90;;;;;;4988574;28;20517;-70
2022/06/13 01:35:23;;;;;;;5.13;4.67;;;18.20;99.90;;;;;;4989409;28;20449;-70
2022/06/13 01:38:07;;;;;;;5.33;4.93;;;18.20;99.90;;;;;;4940364;28;20503;-69
2022/06/13 01:40:50;;;;;;;5.83;5.33;;;18.20;99.90;;;;;;4988952;28;20470;-70
2022/06/13 01:43:57;;;;;;;5.60;5.10;;;18.30;99.90;;;;;;4988869;28;20550;-70
2022/06/13 01:46:46;;;;;;;5.97;5.57;;;18.30;99.90;;;;;;4953113;28;20449;-70
2022/06/13 01:49:17;;;;;;;5.10;4.70;;;18.20;99.90;;;;;;4990231;28;20434;-69
2022/06/13 01:52:01;;;;;;;5.80;5.20;;;18.10;99.90;;;;;;4989667;28;21004;-70
2022/06/13 01:54:56;;;;;;;4.67;4.23;;;18.00;99.90;;;;;;4988394;28;20435;-70
2022/06/13 01:57:39;;;;;;;5.93;5.30;;;18.00;99.90;;;;;;4990297;28;20812;-70
2022/06/13 02:00:17;;;;;;;5.27;4.87;;;18.00;99.90;;;;;;4988351;28;20455;-72
2022/06/13 02:02:51;;;;;;;5.97;5.57;;;18.00;99.90;;;;;;4985029;28;20490;-69
2022/06/13 02:05:36;;;;;;;5.87;5.43;;;18.10;99.90;;;;;;4989442;28;20438;-69
2022/06/13 02:08:06;;;;;;;5.43;4.93;;;18.20;99.90;;;;;;4989541;28;20786;-71
2022/06/13 02:10:39;;;;;;;5.50;5.10;;;18.20;99.90;;;;;;4988763;28;20442;-72
2022/06/13 02:13:10;;;;;;;10.13;5.07;;;18.10;99.90;;;;;;4989271;28;20461;-72
2022/06/13 02:15:52;;;;;;;8.87;5.37;;;18.20;99.90;;;;;;4988559;28;20434;-72
2022/06/13 02:18:49;;;;;;;4.63;4.33;;;18.20;99.90;;;;;;4995157;28;20447;-72
2022/06/13 02:21:18;;;;;;;5.47;4.90;;;18.30;99.90;;;;;;4983946;28;20469;-71
2022/06/13 02:23:49;;;;;;;5.90;4.70;;;18.40;99.90;;;;;;4991650;28;20854;-72
2022/06/13 02:26:24;;;;;;;5.23;4.70;;;18.40;99.90;;;;;;4989066;28;20427;-69
2022/06/13 02:28:57;;;;;;;5.50;5.00;;;18.40;99.90;;;;;;4994256;28;20808;-69
2022/06/13 02:31:51;;;;;;;5.40;5.00;;;18.50;99.90;;;;;;4991704;28;20784;-69
2022/06/13 02:34:24;;;;;;;5.30;4.80;;;18.50;99.90;;;;;;4988055;28;20443;-71
2022/06/13 02:37:10;;;;;;;4.97;4.03;;;18.40;99.90;;;;;;4989100;28;20442;-71
2022/06/13 02:39:49;;;;;;;4.73;4.03;;;18.30;99.90;;;;;;4988394;28;20470;-71
2022/06/13 02:42:30;;;;;;;6.00;4.30;;;18.40;99.90;;;;;;4987959;28;20466;-69
2022/06/13 02:45:01;;;;;;;4.57;4.17;;;18.30;99.90;;;;;;4992444;28;20429;-69
2022/06/13 02:47:55;;;;;;;4.30;3.90;;;18.30;99.90;;;;;;4970462;28;20435;-69
2022/06/13 02:50:28;;;;;;;3.67;3.47;;;18.30;99.90;;;;;;4985436;28;20488;-70
2022/06/13 02:53:33;;;;;;;5.53;5.00;;;18.20;99.90;;;;;;4984002;28;21018;-70
2022/06/13 02:56:16;;;;;;;5.27;4.80;;;18.20;99.90;;;;;;4971026;28;20454;-71
2022/06/13 02:59:10;;;;;;;4.67;4.20;;;18.00;99.90;;;;;;4994600;28;20488;-70
2022/06/13 03:01:42;;;;;;;5.03;4.07;;;18.00;99.90;;;;;;4989090;28;20478;-70
2022/06/13 03:04:37;;;;;;;4.67;4.20;;;17.90;99.90;;;;;;4991305;28;20446;-71
2022/06/13 03:07:36;;;;;;;7.83;4.90;;;17.80;99.90;;;;;;4992518;28;20531;-70
2022/06/13 03:10:12;;;;;;;6.20;4.43;;;17.70;99.90;;;;;;4992107;28;20888;-70
2022/06/13 03:12:46;;;;;;;4.50;4.20;;;17.70;99.90;;;;;;4997447;28;20454;-70
2022/06/13 03:15:29;;;;;;;8.50;4.40;;;17.70;99.90;;;;;;4990693;28;20434;-70
2022/06/13 03:18:04;;;;;;;5.20;4.80;;;17.60;99.90;;;;;;4991484;28;20438;-71
2022/06/13 03:20:41;;;;;;;5.97;5.37;;;17.60;99.90;;;;;;4989002;28;20833;-70
2022/06/13 03:23:16;;;;;;;5.00;4.60;;;17.60;99.90;;;;;;4991244;28;20450;-70
2022/06/13 03:25:53;;;;;;;5.23;4.50;;;17.60;99.90;;;;;;4991313;28;20441;-70
2022/06/13 03:28:49;;;;;;;4.67;4.30;;;17.60;99.90;;;;;;4989215;28;21653;-70
2022/06/13 03:31:26;;;;;;;5.80;5.30;;;17.60;99.90;;;;;;4993611;28;20446;-70
2022/06/13 03:33:58;;;;;;;6.70;3.93;;;17.60;99.90;;;;;;4994402;28;20453;-70
2022/06/13 03:36:40;;;;;;;6.20;4.47;;;17.60;99.90;;;;;;4992676;28;20469;-71
2022/06/13 03:39:27;;;;;;;5.80;4.47;;;17.50;99.90;;;;;;4996140;28;20434;-70
2022/06/13 03:42:08;;;;;;;7.13;4.47;;;17.50;99.90;;;;;;4992370;28;20998;-70
2022/06/13 03:44:47;;;;;;;5.27;4.27;;;17.50;99.90;;;;;;4977140;28;20497;-70
2022/06/13 03:47:27;;;;;;;6.10;4.40;;;17.50;99.90;;;;;;4999510;28;20433;-70
2022/06/13 03:50:23;;;;;;;6.03;3.83;;;17.40;99.90;;;;;;4986432;28;20481;-70
2022/06/13 03:53:31;;;;;;;5.80;4.80;;;17.40;99.90;;;;;;5017679;23;20497;-67
2022/06/13 03:56:09;;;;;;;7.73;4.50;;;17.40;99.90;;;;;;5015557;28;20432;-67
2022/06/13 03:58:39;;;;;;;4.60;4.27;;;17.50;99.90;;;;;;5018811;28;20837;-67
2022/06/13 04:01:26;;;;;;;6.20;4.50;;;17.60;99.90;;;;;;5023957;28;20460;-67
2022/06/13 04:03:53;;;;;;;4.67;4.23;;;17.60;99.90;;;;;;5002531;28;20534;-67
2022/06/13 04:06:40;;;;;;;7.43;4.00;;;17.60;99.90;;;;;;5008732;28;20437;-67
2022/06/13 04:09:21;;;;;;;7.30;4.83;;;17.60;99.90;;;;;;5004096;28;20520;-67
2022/06/13 04:11:50;;;;;;;6.77;4.37;;;17.60;99.90;;;;;;5017331;28;20442;-67
2022/06/13 04:14:34;;;;;;;5.97;4.03;;;17.60;99.90;;;;;;5013881;28;20454;-66
2022/06/13 04:17:32;;;;;;;4.70;3.93;;;17.50;99.90;;;;;;5005585;28;20426;-67
2022/06/13 04:20:19;;;;;;;10.87;4.57;;;17.50;99.90;;;;;;5006547;28;20955;-66
2022/06/13 04:22:56;;;;;;;7.20;4.03;;;17.40;99.90;;;;;;5010448;28;20449;-67
2022/06/13 04:25:36;;;;;;;9.57;5.67;;;17.50;99.90;;;;;;5004425;28;20469;-66
2022/06/13 04:28:24;;;;;;;4.23;3.83;;;17.60;99.90;;;;;;5005261;28;20437;-67
2022/06/13 04:30:53;;;;;;;4.80;4.30;;;17.70;99.90;;;;;;5006133;28;20449;-67
2022/06/13 04:33:26;;;;;;;4.20;3.60;;;17.90;99.90;;;;;;5003087;28;20978;-67
2022/06/13 04:35:53;;;;;;;5.43;3.37;;;18.00;99.90;;;;;;5011230;28;20437;-67
2022/06/13 04:38:22;;;;;;;7.67;4.77;;;18.10;99.90;;;;;;5006192;28;20441;-67
2022/06/13 04:40:54;;;;;;;4.50;3.93;;;18.20;99.90;;;;;;5011409;28;20523;-66
2022/06/13 04:43:23;;;;;;;4.00;3.60;;;18.20;99.90;;;;;;5008303;28;20461;-67
2022/06/13 04:45:56;;;;;;;5.00;3.87;;;18.30;99.90;;;;;;5009425;28;20442;-67
2022/06/13 04:48:23;;;;;;;6.50;4.20;;;17.90;99.90;;;;;;5006316;28;20465;-67
2022/06/13 04:51:10;;;;;;;5.50;4.90;;;17.90;99.90;;;;;;5006878;28;20453;-66
2022/06/13 04:53:44;;;;;;;4.33;3.93;;;18.00;99.90;;;;;;5004708;28;20476;-67
2022/06/13 04:56:10;;;;;;;7.80;4.90;;;18.00;99.90;;;;;;5012433;28;20456;-67
2022/06/13 04:58:38;;;;;;;4.37;3.93;;;18.00;99.90;;;;;;5004258;28;20952;-67
2022/06/13 05:01:17;;;;;;;5.23;4.20;;;18.00;99.90;;;;;;5005825;28;20202;-67
2022/06/13 05:03:46;;;;;;;4.93;3.70;;;18.30;99.90;;;;;;5019269;28;20485;-66
2022/06/13 05:06:26;;;;;;;6.70;4.03;;;18.40;99.90;;;;;;5012382;28;20488;-67
2022/06/13 05:08:55;;;;;;;5.00;4.60;;;18.40;99.90;;;;;;5005245;28;20507;-67
2022/06/13 05:11:38;;;;;;;6.47;4.67;;;18.50;99.90;;;;;;5009511;28;20998;-67
2022/06/13 05:14:11;;;;;;;8.67;4.87;;;18.50;99.90;;;;;;5014418;28;20457;-66
2022/06/13 05:17:29;;;;;;;5.50;4.37;;;18.60;99.90;;;;;;5019511;28;20443;-67
2022/06/13 05:20:08;;;;;;;11.10;4.57;;;18.80;99.90;;;;;;4979628;28;20453;-66
2022/06/13 05:23:11;;;;;;;7.20;4.57;;;19.00;99.90;;;;;;5018706;28;20457;-67
2022/06/13 05:25:40;;;;;;;7.00;4.10;;;18.80;99.90;;;;;;5012985;28;21048;-67
2022/06/13 05:28:07;;;;;;;6.60;4.10;;;18.90;99.90;;;;;;5011462;28;20438;-68
2022/06/13 05:30:32;;;;;;;5.43;4.10;;;19.20;99.90;;;;;;5012244;28;20529;-68
2022/06/13 05:32:58;;;;;;;7.60;4.00;;;19.40;99.90;;;;;;5010022;28;20488;-66
2022/06/13 05:35:31;;;;;;;6.50;4.57;;;19.60;99.90;;;;;;5004027;28;20237;-72
2022/06/13 05:37:59;;;;;;;6.33;3.93;;;19.40;99.90;;;;;;5013243;28;20236;-70
2022/06/13 05:40:24;;;;;;;4.10;3.80;;;19.60;99.90;;;;;;5014430;28;20465;-70
2022/06/13 05:42:50;;;;;;;7.00;4.33;;;19.80;99.90;;;;;;5009161;28;20461;-70
2022/06/13 05:45:22;;;;;;;6.47;4.53;;;19.70;99.90;;;;;;5014674;28;20180;-70
2022/06/13 05:47:49;;;;;;;5.13;3.47;;;19.60;99.90;;;;;;5016485;28;20440;-70
2022/06/13 05:50:19;;;;;;;7.97;3.83;;;19.90;99.90;;;;;;5006324;28;20451;-70
2022/06/13 05:52:45;;;;;;;8.43;3.77;;;20.10;99.90;;;;;;5002853;28;20547;-70
2022/06/13 05:55:12;;;;;;;7.70;4.47;;;20.00;99.90;;;;;;4999538;28;20946;-71
2022/06/13 05:57:38;;;;;;;5.73;4.10;;;20.00;99.90;;;;;;5007839;28;20269;-67
2022/06/13 06:00:07;;;;;;;7.10;3.90;;;20.10;99.90;;;;;;5010693;28;20444;-67
2022/06/13 06:02:33;;;;;;;8.97;5.70;;;20.20;99.90;;;;;;5004799;28;20462;-66
2022/06/13 06:04:58;;;;;;;6.47;3.30;;;20.40;99.90;;;;;;5009036;28;20441;-66
2022/06/13 06:07:25;;;;;;;3.93;3.53;;;20.40;99.90;;;;;;5012566;28;20221;-67
2022/06/13 06:09:50;;;;;;;4.53;4.13;;;20.40;99.90;;;;;;5003335;28;20954;-67
2022/06/13 06:12:16;;;;;;;4.80;4.30;;;20.20;99.90;;;;;;5008627;28;20521;-66
2022/06/13 06:14:41;;;;;;;5.70;3.77;;;20.20;99.90;;;;;;5018358;28;20255;-66
2022/06/13 06:17:07;;;;;;;6.37;3.57;;;20.30;99.90;;;;;;5011554;28;20325;-66
2022/06/13 06:19:32;;;;;;;7.30;4.07;;;20.50;99.90;;;;;;5008945;28;20655;-65
2022/06/13 06:21:58;;;;;;;8.93;4.00;;;20.50;99.90;;;;;;5008833;28;20207;-64
2022/06/13 06:24:23;;;;;;;5.93;3.30;;;20.50;99.90;;;;;;5004439;28;20262;-64
2022/06/13 06:26:49;;;;;;;4.47;4.07;;;20.40;99.90;;;;;;5007837;28;20588;-64
2022/06/13 06:29:14;;;;;;;8.13;3.30;;;20.60;99.90;;;;;;5006565;28;20203;-64
2022/06/13 06:31:40;;;;;;;9.83;3.90;;;20.50;99.90;;;;;;5008153;28;20213;-65
2022/06/13 06:34:05;;;;;;;6.00;3.00;;;20.70;99.90;;;;;;5012334;28;20702;-64
2022/06/13 06:36:31;;;;;;;5.40;4.90;;;20.60;99.90;;;;;;5014196;28;20186;-65
2022/06/13 06:38:57;;;;;;;6.23;3.93;;;20.80;99.90;;;;;;5016228;28;20183;-65
2022/06/13 06:41:22;;;;;;;4.33;3.20;;;20.80;99.90;;;;;;5014111;28;20197;-64
2022/06/13 06:43:48;;;;;;;4.90;3.67;;;20.90;99.90;;;;;;5009102;28;20203;-64
2022/06/13 06:46:14;;;;;;;8.47;3.50;;;21.00;99.90;;;;;;5009461;28;20234;-64
2022/06/13 06:48:40;;;;;;;4.20;3.17;;;20.90;99.90;;;;;;5003564;28;20547;-64
2022/06/13 06:51:08;;;;;;;5.70;3.50;;;21.00;99.90;;;;;;5008667;28;20418;-64
2022/06/13 07:01:48;;;;;;;6.27;3.10;;;21.30;99.90;;;;;;5006099;28;20499;-61
2022/06/13 07:04:14;;;;;;;7.47;3.40;;;21.50;99.90;;;;;;4982869;28;20545;-64
2022/06/13 07:06:40;;;;;;;8.43;3.43;;;21.40;99.90;;;;;;4999565;28;20171;-63
2022/06/13 07:09:06;;;;;;;4.57;3.50;;;21.70;99.90;;;;;;5012338;28;20258;-63
2022/06/13 07:14:18;;;;;;;4.90;3.10;;;22.20;99.90;;;;;;5008626;28;20286;-63
2022/06/13 07:16:44;;;;;;;4.00;3.20;;;22.40;99.90;;;;;;5012529;28;20460;-64
2022/06/13 07:19:10;;;;;;;6.23;3.47;;;22.60;99.90;;;;;;5012247;28;20187;-64
2022/06/13 07:21:35;;;;;;;6.10;3.60;;;22.70;99.90;;;;;;5014227;28;20281;-64
2022/06/13 07:24:01;;;;;;;4.10;3.20;;;22.90;99.90;;;;;;5005421;28;20281;-64
2022/06/13 07:26:26;;;;;;;3.90;3.40;;;22.80;99.90;;;;;;5011080;28;20183;-64
2022/06/13 07:28:52;;;;;;;3.50;3.20;;;22.60;99.90;;;;;;5009685;28;20187;-64
2022/06/13 07:31:21;;;;;;;8.90;4.10;;;22.80;99.90;;;;;;5009240;28;20190;-65
2022/06/13 07:33:49;;;;;;;4.20;3.10;;;22.90;99.80;;;;;;5006474;28;20206;-64
2022/06/13 07:36:16;;;;;;;6.70;3.40;;;23.00;99.90;;;;;;5008334;28;20441;-62
2022/06/13 07:38:41;;;;;;;4.27;3.57;;;23.30;98.80;;;;;;5007996;28;20947;-64
2022/06/13 07:41:10;;;;;;;7.67;3.40;;;23.60;97.80;;;;;;5005825;28;20474;-64
2022/06/13 07:43:39;;;;;;;8.63;3.70;;;23.80;97.70;;;;;;5001515;28;20232;-64
2022/06/13 07:46:06;;;;;;;5.53;3.20;;;24.00;97.80;;;;;;5003059;28;20538;-65
2022/06/13 07:48:33;;;;;;;8.20;3.63;;;23.80;95.60;;;;;;5004961;28;20524;-64
2022/06/13 07:50:59;;;;;;;4.70;3.43;;;23.60;96.10;;;;;;5006505;28;20472;-64
2022/06/13 07:53:25;;;;;;;9.97;3.60;;;23.50;95.70;;;;;;5000798;28;20982;-64
2022/06/13 07:55:51;;;;;;;8.00;5.27;;;23.60;96.60;;;;;;5005349;28;20452;-64
2022/06/13 07:58:24;;;;;;;5.10;3.27;;;23.80;95.80;;;;;;4996789;28;20433;-64
2022/06/13 08:00:51;;;;;;;5.13;2.97;;;24.00;94.90;;;;;;5009388;28;20807;-64
2022/06/13 08:03:24;;;;;;;6.77;4.60;;;23.80;95.90;;;;;;5005726;28;20465;-64
2022/06/13 08:05:50;;;;;;;6.20;3.43;;;24.10;95.50;;;;;;5009341;28;20438;-62
2022/06/13 08:08:16;;;;;;;5.00;2.67;;;24.40;94.30;;;;;;5007412;28;20568;-64
2022/06/13 08:10:45;;;;;;;7.43;3.17;;;24.20;94.20;;;;;;5008344;28;20580;-64
2022/06/13 08:13:15;;;;;;;3.93;3.10;;;24.20;93.50;;;;;;5003808;28;21051;-63
2022/06/13 08:15:42;;;;;;;4.00;3.07;;;24.70;93.50;;;;;;5010128;28;20985;-61
2022/06/13 08:18:09;;;;;;;4.07;3.67;;;24.50;92.60;;;;;;5009163;28;20441;-64
2022/06/13 08:20:35;;;;;;;4.33;2.93;;;24.70;93.20;;;;;;5008686;28;20527;-64
2022/06/13 08:23:02;;;;;;;8.63;2.80;;;24.70;92.80;;;;;;5004930;28;20461;-64
2022/06/13 08:25:31;;;;;;;3.97;2.97;;;24.80;92.10;;;;;;5008851;28;20177;-65
2022/06/13 08:27:58;;;;;;;5.20;3.07;;;25.10;91.10;;;;;;5006371;28;20439;-64
2022/06/13 08:30:31;;;;;;;8.90;3.53;;;25.00;90.20;;;;;;5005050;28;20456;-64
2022/06/13 08:32:56;;;;;;;6.13;3.40;;;25.00;90.30;;;;;;5005939;28;20608;-64
2022/06/13 08:35:22;;;;;;;4.73;3.50;;;25.60;88.90;;;;;;5006706;28;20520;-64
2022/06/13 08:37:47;;;;;;;3.70;2.97;;;26.00;88.40;;;;;;5009953;28;20266;-65
2022/06/13 08:40:13;;;;;;;7.87;3.50;;;26.30;88.80;;;;;;5007169;28;20641;-65
2022/06/13 08:42:46;;;;;;;3.43;2.63;;;26.40;87.40;;;;;;5004606;28;20207;-64
2022/06/13 08:45:43;;;;;;;5.40;3.53;;;26.10;88.40;;;;;;5006281;28;20261;-64
2022/06/13 08:48:22;;;;;;;5.37;4.47;;;26.10;87.20;;;;;;5004042;28;20869;-63
2022/06/13 08:50:51;;;;;;;5.73;3.47;;;26.70;86.30;;;;;;5008692;28;20436;-62
2022/06/13 08:53:27;;;;;;;7.00;3.60;;;26.60;85.60;;;;;;5003591;28;20478;-65
2022/06/13 08:55:59;;;;;;;10.80;3.63;;;26.70;85.00;;;;;;5007394;28;22066;-65
2022/06/13 08:58:33;;;;;;;7.40;3.27;;;26.60;83.40;;;;;;5006598;28;20470;-65
2022/06/13 09:01:07;;;;;;;7.63;3.67;;;26.60;82.50;;;;;;5006944;28;20499;-65
2022/06/13 09:03:47;;;;;;;4.67;3.50;;;26.40;84.20;;;;;;4999880;28;20450;-64
2022/06/13 09:06:26;;;;;;;8.37;3.63;;;25.90;84.70;;;;;;5008959;28;20504;-65
2022/06/13 09:09:18;;;;;;;3.80;3.50;;;26.20;84.80;;;;;;5004405;28;20442;-65
2022/06/13 09:11:53;;;;;;;8.20;3.60;;;26.10;84.00;;;;;;5003245;28;20453;-64
2022/06/13 09:14:30;;;;;;;5.87;3.80;;;26.00;84.50;;;;;;5003268;28;20463;-65
2022/06/13 09:17:11;;;;;;;7.03;3.47;;;26.30;83.50;;;;;;5000685;28;20622;-64
2022/06/13 09:20:07;;;;;;;4.50;3.97;;;26.50;85.00;;;;;;5007690;28;20422;-63
2022/06/13 09:23:09;;;;;;;5.90;3.47;;;26.70;84.00;;;;;;5004770;28;20454;-64
2022/06/13 09:26:03;;;;;;;8.03;2.93;;;26.20;83.50;;;;;;5006966;28;20429;-64
2022/06/13 09:28:39;;;;;;;6.37;3.67;;;25.90;83.90;;;;;;5008365;28;20430;-63
2022/06/13 09:31:19;;;;;;;5.23;4.07;;;26.00;82.20;;;;;;5013081;28;20441;-65
2022/06/13 09:33:55;;;;;;;5.80;3.40;;;26.10;81.20;;;;;;5007422;28;20801;-65
2022/06/13 09:36:31;;;;;;;7.23;3.43;;;26.30;79.80;;;;;;5005779;28;20820;-64
2022/06/13 09:39:11;;;;;;;8.67;3.50;;;26.20;78.30;;;;;;5010316;28;20846;-64
2022/06/13 09:42:14;;;;;;;4.40;2.77;;;26.10;78.20;;;;;;5018065;28;20483;-64
2022/06/13 09:44:58;;;;;;;3.37;2.63;;;26.10;75.50;;;;;;5001322;28;20467;-64
2022/06/13 09:47:35;;;;;;;3.93;2.67;;;26.50;74.20;;;;;;5013618;28;20521;-65
2022/06/13 09:50:43;;;;;;;3.57;2.80;;;27.10;74.70;;;;;;5016358;28;20433;-64
2022/06/13 09:53:28;;;;;;;4.70;3.37;;;27.40;72.70;;;;;;5007757;28;20783;-64
2022/06/13 09:56:06;;;;;;;4.07;2.70;;;27.80;72.10;;;;;;5011321;28;20442;-64
2022/06/13 09:58:56;;;;;;;3.60;3.27;;;28.00;70.20;;;;;;5005333;28;20485;-66
2022/06/13 10:01:50;;;;;;;8.00;3.20;;;28.30;63.90;;;;;;5003046;28;20974;-65
2022/06/13 10:04:33;;;;;;;2.93;2.67;;;28.60;64.60;;;;;;5002925;28;20832;-66
2022/06/13 10:07:17;;;;;;;5.10;3.23;;;29.10;61.80;;;;;;5006134;28;20524;-66
2022/06/13 10:09:48;;;;;;;2.83;2.63;;;29.70;60.20;;;;;;4995859;28;20525;-66
2022/06/13 10:12:51;;;;;;;4.20;2.83;;;29.50;58.50;;;;;;5006573;28;20496;-65
2022/06/13 10:15:38;;;;;;;7.90;7.20;;;29.10;59.30;;;;;;5007309;28;20449;-65
2022/06/13 10:18:15;;;;;;;301.03;280.70;;;28.80;57.80;;;;;;5012675;28;20619;-65
2022/06/13 10:21:00;;;;;;;105.43;98.67;;;29.40;56.60;;;;;;5016214;28;20468;-68
2022/06/13 10:23:52;;;;;;;32.13;22.50;;;29.60;56.40;;;;;;5004245;28;20465;-66
2022/06/13 10:27:06;;;;;;;54.90;48.20;;;30.90;56.80;;;;;;5003682;28;20453;-69
2022/06/13 10:29:31;;;;;;;39.47;36.00;;;32.10;55.60;;;;;;4968380;28;20451;-69
2022/06/13 10:32:21;;;;;;;84.13;76.13;;;32.80;54.20;;;;;;4996240;28;20441;-68
2022/06/13 10:35:08;;;;;;;119.60;107.10;;;32.40;54.10;;;;;;4998306;28;20195;-68
2022/06/13 10:37:33;;;;;;;11.63;10.63;;;31.90;51.70;;;;;;5004882;28;20491;-67
2022/06/13 10:40:03;;;;;;;6.87;4.90;;;33.10;50.20;;;;;;5009453;28;20950;-68
2022/06/13 10:42:31;;;;;;;5.40;3.43;;;32.30;48.20;;;;;;5001431;28;20227;-67
2022/06/13 10:44:57;;;;;;;4.90;3.70;;;33.60;47.60;;;;;;4997806;28;20465;-68
2022/06/13 10:47:38;;;;;;;6.10;5.57;;;34.40;45.80;;;;;;5008139;28;20442;-68
2022/06/13 10:50:16;;;;;;;6.13;3.20;;;34.70;45.50;;;;;;5003451;28;20178;-67
2022/06/13 10:52:47;;;;;;;4.40;3.43;;;35.10;44.70;;;;;;4998351;28;20543;-67
2022/06/13 10:55:17;;;;;;;4.33;3.07;;;35.80;43.20;;;;;;5006728;28;20868;-66
2022/06/13 10:57:56;;;;;;;4.70;4.27;;;36.20;43.00;;;;;;5017232;28;20486;-66
2022/06/13 11:00:28;;;;;;;3.63;3.13;;;35.70;42.40;;;;;;5019007;28;20432;-67
2022/06/13 11:03:15;;;;;;;4.80;3.30;;;34.90;43.80;;;;;;5009810;28;20556;-67
2022/06/13 11:05:54;;;;;;;2.70;2.50;;;35.60;41.50;;;;;;5017269;28;20433;-66
2022/06/13 11:08:21;;;;;;;3.20;3.00;;;34.60;43.10;;;;;;5005878;28;20458;-68
2022/06/13 11:10:58;;;;;;;4.37;3.40;;;34.50;42.70;;;;;;5018062;28;20545;-69
2022/06/13 11:13:32;;;;;;;3.60;2.40;;;34.60;42.40;;;;;;5010921;28;20562;-69
2022/06/13 11:22:38;;;;;;;5.03;2.70;;;36.80;39.90;;;;;;5012991;28;20917;-68
2022/06/13 11:25:32;;;;;;;3.77;2.90;;;37.10;37.60;;;;;;5006374;28;20453;-69
2022/06/13 11:28:07;;;;;;;4.80;3.13;;;36.70;38.20;;;;;;5006233;28;20965;-67
2022/06/13 11:30:47;;;;;;;4.20;3.33;;;36.40;37.10;;;;;;5004482;28;20445;-69
2022/06/13 11:33:13;;;;;;;2.80;2.33;;;35.70;38.10;;;;;;4997796;28;20840;-69
2022/06/13 11:35:46;;;;;;;3.23;2.93;;;35.60;38.60;;;;;;5005345;28;20536;-69
2022/06/13 11:38:25;;;;;;;3.30;3.00;;;35.40;37.70;;;;;;5006690;28;20195;-68
2022/06/13 11:41:17;;;;;;;2.70;2.50;;;32.60;38.40;;;;;;5014717;28;20477;-69
2022/06/13 11:44:02;;;;;;;3.23;2.80;;;31.80;40.80;;;;;;5005580;28;20461;-68
2022/06/13 11:46:27;;;;;;;3.77;2.70;;;31.90;41.20;;;;;;5005533;28;20480;-68
2022/06/13 11:48:55;;;;;;;2.63;2.33;;;32.80;39.80;;;;;;5007513;28;20911;-69
2022/06/13 11:51:24;;;;;;;2.50;2.30;;;34.10;39.40;;;;;;5007101;28;20190;-69
2022/06/13 11:53:52;;;;;;;5.53;2.50;;;35.20;37.60;;;;;;5001203;28;20512;-70
2022/06/13 11:56:25;;;;;;;3.27;2.67;;;35.50;36.90;;;;;;5003113;28;20540;-69
2022/06/13 11:58:53;;;;;;;3.23;2.70;;;35.90;37.00;;;;;;5007512;28;20468;-70
2022/06/13 12:01:30;;;;;;;3.10;2.80;;;36.10;37.50;;;;;;5005187;28;20465;-70
2022/06/13 12:04:05;;;;;;;2.87;2.67;;;37.60;36.30;;;;;;5003856;28;20572;-70
2022/06/13 12:06:48;;;;;;;3.90;3.03;;;36.00;35.40;;;;;;5010020;28;20964;-70
2022/06/13 12:09:23;;;;;;;3.80;2.57;;;37.10;36.10;;;;;;5005310;28;20448;-68
2022/06/13 12:12:00;;;;;;;2.80;2.60;;;38.60;34.00;;;;;;5007864;28;20473;-68
2022/06/13 12:14:27;;;;;;;3.40;3.03;;;38.70;34.60;;;;;;5007737;28;20531;-67
2022/06/13 12:16:59;;;;;;;3.90;2.53;;;37.20;34.00;;;;;;5006622;28;20938;-67
2022/06/13 12:19:28;;;;;;;2.93;2.40;;;34.50;35.70;;;;;;5006314;28;20449;-67
2022/06/13 12:22:09;;;;;;;3.60;2.37;;;35.80;36.30;;;;;;5000693;28;20561;-67
2022/06/13 12:25:03;;;;;;;4.00;2.47;;;36.80;35.40;;;;;;5004812;28;20443;-66
2022/06/13 12:27:37;;;;;;;5.33;2.83;;;36.30;35.10;;;;;;5004520;28;20524;-67
2022/06/13 12:30:28;;;;;;;2.53;2.30;;;35.50;34.60;;;;;;5005232;28;20507;-67
2022/06/13 12:33:15;;;;;;;3.20;2.50;;;36.30;34.90;;;;;;5002856;28;20477;-68
2022/06/13 12:36:18;;;;;;;2.33;2.10;;;37.00;34.10;;;;;;5006203;28;20446;-67
2022/06/13 12:39:35;;;;;;;2.70;2.50;;;37.10;34.60;;;;;;5005505;28;20557;-67
2022/06/13 12:42:10;;;;;;;5.77;3.20;;;36.20;35.50;;;;;;4996445;28;20508;-67
2022/06/13 12:44:41;;;;;;;2.70;2.50;;;35.60;35.90;;;;;;5000197;28;20528;-67
2022/06/13 12:47:24;;;;;;;4.53;2.60;;;34.00;37.20;;;;;;5002051;28;20863;-67
2022/06/13 12:50:18;;;;;;;2.80;2.60;;;34.30;37.00;;;;;;5003908;28;20817;-67
2022/06/13 12:53:01;;;;;;;5.20;2.50;;;32.90;36.70;;;;;;5001680;28;20477;-66
2022/06/13 12:55:42;;;;;;;2.60;2.40;;;32.70;38.10;;;;;;5003423;28;20437;-67
2022/06/13 12:58:26;;;;;;;2.70;2.50;;;34.20;36.50;;;;;;5001390;28;20815;-67
2022/06/13 13:01:10;;;;;;;4.40;2.63;;;33.30;38.00;;;;;;5005977;28;20568;-67
2022/06/13 13:03:46;;;;;;;4.23;2.57;;;34.70;36.40;;;;;;5004249;28;20465;-67
2022/06/13 13:06:59;;;;;;;2.90;2.63;;;36.80;35.30;;;;;;5003326;28;20464;-67
2022/06/13 13:09:53;;;;;;;3.00;2.80;;;38.90;34.20;;;;;;4976523;28;20544;-68
2022/06/13 13:12:56;;;;;;;3.60;3.30;;;40.00;32.70;;;;;;5006451;28;21039;-68
2022/06/13 13:15:34;;;;;;;2.60;2.40;;;40.50;32.20;;;;;;5004074;28;20449;-69
2022/06/13 13:18:32;;;;;;;2.80;2.60;;;38.00;33.20;;;;;;4996784;28;20449;-67
2022/06/13 13:21:06;;;;;;;2.77;2.40;;;37.70;33.20;;;;;;5001853;28;20496;-68
2022/06/13 13:23:41;;;;;;;5.80;2.90;;;38.60;32.40;;;;;;4998462;28;20469;-67
2022/06/13 13:26:47;;;;;;;3.93;2.33;;;38.40;32.30;;;;;;5007852;28;20441;-67
2022/06/13 13:29:40;;;;;;;2.63;2.00;;;37.50;31.60;;;;;;5004222;28;20446;-67
2022/06/13 13:32:25;;;;;;;3.17;2.63;;;35.70;33.10;;;;;;5002348;28;20569;-67
2022/06/13 13:35:28;;;;;;;2.53;2.33;;;34.80;33.50;;;;;;5004071;28;20525;-67
2022/06/13 13:38:15;;;;;;;3.20;2.87;;;34.10;34.70;;;;;;4994543;28;20446;-67
2022/06/13 13:40:51;;;;;;;2.47;2.10;;;32.20;34.90;;;;;;5001938;28;20512;-67
2022/06/13 13:43:33;;;;;;;3.57;2.53;;;30.90;36.10;;;;;;5001916;28;20912;-67
2022/06/13 13:46:14;;;;;;;2.33;2.20;;;30.60;36.50;;;;;;5005459;28;20552;-67
2022/06/13 13:48:46;;;;;;;3.87;2.03;;;29.60;37.10;;;;;;5006256;28;20425;-67
2022/06/13 13:51:19;;;;;;;2.27;1.93;;;29.30;37.80;;;;;;5007361;28;20923;-67
2022/06/13 13:53:51;;;;;;;3.50;2.40;;;29.60;38.60;;;;;;5001795;28;20615;-66